Lake View, SC (29563)

1:23 AM EST on February 08, 2016 (GMT -0500)
Nichols | | Change Station
CLOSE
Current Station
Personal Weather Station
Location: Nichols, SC
Elevation: 167 ft
Nearby Weather Stations
Active Advisory: Flood Warning Active Notice: Record Report

Elev 167 ft 34.24 °N, 79.16 °W | Updated 9 minutes ago

Clear
Clear
39.0 °F
Feels Like 36 °F
N
4.7
Wind Variable Wind from WNW

Today
High -- | Low -- °F
--% Chance of Precip.
Yesterday
High -- | Low -- °F
Precip. -- in
Pressure 29.87 in
Visibility 10.0 miles
Clouds Clear
Windchill 36 °F
Dew Point 30 °F
Humidity 69%
Rainfall 0.00 in
Snow Depth Not available.
7:09 AM 5:53 PM
Waning Crescent, 0% visible
METAR KMAO 080615Z AUTO 28006KT 10SM CLR 03/M02 A2987 RMK AO2
Pressure 29.87 in
Visibility 10.0 miles
Clouds Clear
Windchill 36 °F
Dew Point 30 °F
Humidity 69%
Rainfall 0.00 in
Snow Depth Not available.
7:09 AM 5:53 PM
Waning Crescent, 0% visible
METAR KMAO 080615Z AUTO 28006KT 10SM CLR 03/M02 A2987 RMK AO2

10-Day Weather Forecast

Almanac

Astronomy

Feb. 08, 2016 Rise Set
Actual Time
Civil Twilight
Nautical Twilight
Astronomical Twilight
Moon
Length of Visible Light
Length of Day
Tomorrow will be .
, % of the Moon is Illuminated

Today's Extremes

State Highs State Lows

Community

WunderPhotos

Upload Photos

1,891,393 photos uploaded!

WunderBlog® & News

Nearby

Air Quality

  Air Quality AQ Index Pollutant
Not available.

Snow Depth

Station Depth Elevation

Earthquake Activity

City Distance Mag. Time & Date
Minimum magnitude displayed is 2.5.

Coastal Water Temperatures

Place Temperature

Stations

Nearby Weather Stations

Station Location Temp. Windchill Dew Point Humidity Wind Precip. Elev Updated Type
                   

Watches & Warnings

Flood Warning
Issued: 8:25 PM EST Feb. 7, 2016 – National Weather Service

The Flood Warning continues for
the little Pee Dee at Galivants Ferry.
* Until further notice.
* At 8:00 PM Sunday the stage was 10.02 feet.
* Flood stage is 9.0 feet.
* Minor flooding is occurring and minor flooding is forecast.
* Forecast... the river will continue rising to near 10.9 feet by early Thursday
afternoon then begin falling.
* Impact... at 11.0 feet... flood waters will continue to rise in the Fork retch
community located near Nichols. Flood waters will begin to affect some homes
at Fork retch. Swampland flooding will increase.


Lat... Lon 3423 7921 3419 7910 3405 7920 3398 7928
          3400 7938 3409 7930